createdAt,value
2022-08-24T00:00:24.804Z,76.90
2022-08-24T00:02:53.237Z,76.90
2022-08-24T00:05:22.154Z,77.20
2022-08-24T00:07:51.066Z,77.40
2022-08-24T00:10:20.572Z,77.50
2022-08-24T00:12:50.013Z,77.30
2022-08-24T00:15:19.699Z,77.30
2022-08-24T00:17:47.792Z,77.10
2022-08-24T00:20:15.916Z,77.60
2022-08-24T00:22:44.762Z,78.10
2022-08-24T00:25:14.650Z,78.20
2022-08-24T00:27:43.263Z,78.80
2022-08-24T00:30:15.437Z,79.20
2022-08-24T00:32:46.759Z,78.80
2022-08-24T00:35:18.298Z,79.60
2022-08-24T00:37:50.992Z,80.10
2022-08-24T00:40:26.970Z,81.00
2022-08-24T00:42:56.353Z,80.40
2022-08-24T00:45:27.093Z,81.80
2022-08-24T00:48:00.250Z,82.20
2022-08-24T00:50:35.200Z,81.20
2022-08-24T00:53:07.460Z,83.00
2022-08-24T00:55:39.033Z,83.40
2022-08-24T00:58:17.167Z,83.00
2022-08-24T01:00:57.621Z,83.30
2022-08-24T01:03:28.606Z,83.50
2022-08-24T01:05:57.602Z,83.70
2022-08-24T01:08:26.047Z,83.80
2022-08-24T01:10:59.833Z,84.10
2022-08-24T01:13:28.767Z,84.80
2022-08-24T01:16:01.375Z,85.50
2022-08-24T01:18:51.106Z,85.90
2022-08-24T01:21:24.548Z,85.40
2022-08-24T01:23:57.316Z,85.50
2022-08-24T01:26:29.270Z,85.50
2022-08-24T01:29:02.422Z,86.30
2022-08-24T01:31:33.128Z,86.80
2022-08-24T01:34:01.459Z,87.10
2022-08-24T01:36:33.029Z,87.40
2022-08-24T01:39:09.311Z,87.50
2022-08-24T01:41:38.076Z,87.30
2022-08-24T01:44:06.684Z,87.40
2022-08-24T01:46:35.259Z,88.00
2022-08-24T01:49:03.618Z,88.20
2022-08-24T01:51:33.566Z,88.30
2022-08-24T01:54:05.713Z,88.70
2022-08-24T01:56:34.893Z,89.00
2022-08-24T01:59:07.774Z,89.20
2022-08-24T02:01:41.102Z,89.60
2022-08-24T02:04:12.728Z,91.10
2022-08-24T02:06:47.381Z,90.30
2022-08-24T02:09:18.205Z,90.60
2022-08-24T02:11:46.460Z,90.40
2022-08-24T02:14:14.893Z,90.70
2022-08-24T02:16:43.373Z,90.90
2022-08-24T02:19:11.855Z,91.30
2022-08-24T02:21:40.582Z,91.30
2022-08-24T02:24:09.719Z,91.50
2022-08-24T02:26:39.632Z,91.80
2022-08-24T02:29:08.328Z,92.40
2022-08-24T02:31:37.301Z,92.40
2022-08-24T02:34:05.950Z,93.20
2022-08-24T02:36:34.078Z,93.20
2022-08-24T02:39:02.468Z,93.90
2022-08-24T02:41:34.601Z,93.80
2022-08-24T02:44:05.077Z,94.40
2022-08-24T02:46:34.858Z,94.20
2022-08-24T02:49:11.095Z,95.00
2022-08-24T02:51:47.276Z,95.70
2022-08-24T02:54:19.439Z,95.00
2022-08-24T02:56:49.543Z,95.10
2022-08-24T02:59:19.811Z,95.80
2022-08-24T03:01:50.070Z,96.60
2022-08-24T03:04:20.692Z,96.10
2022-08-24T03:06:49.349Z,96.80
2022-08-24T03:09:18.445Z,97.20
2022-08-24T03:11:47.006Z,96.90
2022-08-24T03:14:18.552Z,97.40
2022-08-24T03:16:46.768Z,97.50
2022-08-24T03:19:15.583Z,97.50
2022-08-24T03:21:45.579Z,97.60
2022-08-24T03:24:14.137Z,97.20
2022-08-24T03:26:44.083Z,98.00
2022-08-24T03:29:15.918Z,98.70
2022-08-24T03:31:47.274Z,98.90
2022-08-24T03:34:15.945Z,99.10
2022-08-24T03:36:46.999Z,99.00
2022-08-24T03:39:17.245Z,99.40
2022-08-24T03:41:45.970Z,99.90
2022-08-24T03:44:14.261Z,99.90
2022-08-24T03:46:46.316Z,99.90
2022-08-24T03:49:14.870Z,99.80
2022-08-24T03:51:43.620Z,99.90
2022-08-24T03:54:13.560Z,99.60
2022-08-24T03:56:42.319Z,99.30
2022-08-24T03:59:11.292Z,99.60
2022-08-24T04:01:43.336Z,99.60
2022-08-24T04:04:13.081Z,99.90
2022-08-24T04:06:44.509Z,99.90
2022-08-24T04:09:13.486Z,99.90
2022-08-24T04:11:46.015Z,99.90
2022-08-24T04:14:26.889Z,99.90
2022-08-24T04:17:15.669Z,99.90
2022-08-24T04:19:58.339Z,99.90
2022-08-24T04:22:36.754Z,99.90
2022-08-24T04:25:09.056Z,99.90
2022-08-24T04:27:38.702Z,99.90
2022-08-24T04:30:09.869Z,99.90
2022-08-24T04:33:00.320Z,99.90
2022-08-24T04:35:29.896Z,99.90
2022-08-24T04:37:58.035Z,99.90
2022-08-24T04:40:26.271Z,99.90
2022-08-24T04:42:54.718Z,99.90
2022-08-24T04:45:23.154Z,99.80
2022-08-24T04:47:52.603Z,99.10
2022-08-24T04:50:21.902Z,98.30
2022-08-24T04:52:54.268Z,97.50
2022-08-24T04:55:22.907Z,96.40
2022-08-24T04:57:53.638Z,95.40
2022-08-24T05:00:22.273Z,94.50
2022-08-24T05:02:50.637Z,93.70
2022-08-24T05:05:19.002Z,92.80
2022-08-24T05:07:47.206Z,92.30
2022-08-24T05:10:16.950Z,92.40
2022-08-24T05:12:45.296Z,92.00
2022-08-24T05:15:16.299Z,91.80
2022-08-24T05:17:50.352Z,91.20
2022-08-24T05:20:20.284Z,91.00
2022-08-24T05:22:50.959Z,91.60
2022-08-24T05:25:23.081Z,91.80
2022-08-24T05:27:51.995Z,91.30
2022-08-24T05:30:20.563Z,91.00
2022-08-24T05:32:49.244Z,90.90
2022-08-24T05:35:17.807Z,91.20
2022-08-24T05:37:46.146Z,91.50
2022-08-24T05:40:18.053Z,90.90
2022-08-24T05:42:51.800Z,90.40
2022-08-24T05:45:21.167Z,90.50
2022-08-24T05:47:51.409Z,90.00
2022-08-24T05:50:40.113Z,89.50
2022-08-24T05:53:09.512Z,89.20
2022-08-24T05:55:40.859Z,88.80
2022-08-24T05:58:18.569Z,88.00
2022-08-24T06:00:59.906Z,88.00
2022-08-24T06:03:30.388Z,88.50
2022-08-24T06:05:59.609Z,88.20
2022-08-24T06:08:27.973Z,87.50
2022-08-24T06:10:56.117Z,87.40
2022-08-24T06:13:25.696Z,87.20
2022-08-24T06:16:20.978Z,86.60
2022-08-24T06:18:52.222Z,86.20
2022-08-24T06:21:28.374Z,85.80
2022-08-24T06:23:59.723Z,86.10
2022-08-24T06:26:50.077Z,84.20
2022-08-24T06:29:21.580Z,83.30
2022-08-24T06:31:56.194Z,82.40
2022-08-24T06:34:26.679Z,82.50
2022-08-24T06:36:55.170Z,82.30
2022-08-24T06:39:26.432Z,81.80
2022-08-24T06:41:57.849Z,81.50
2022-08-24T06:44:35.789Z,80.80
2022-08-24T06:47:18.736Z,80.40
2022-08-24T06:49:47.105Z,79.90
2022-08-24T06:52:15.379Z,79.30
2022-08-24T06:54:43.734Z,79.30
2022-08-24T06:57:12.139Z,78.90
2022-08-24T06:59:43.209Z,78.30
2022-08-24T07:02:15.697Z,77.80
2022-08-24T07:04:44.954Z,77.30
2022-08-24T07:07:31.544Z,77.70
2022-08-24T07:10:02.154Z,76.20
2022-08-24T07:12:30.460Z,75.20
2022-08-24T07:15:03.299Z,75.00
2022-08-24T07:17:37.351Z,74.90
2022-08-24T07:20:06.626Z,74.30
2022-08-24T07:22:54.766Z,73.30
2022-08-24T07:25:23.072Z,73.20
2022-08-24T07:27:53.632Z,72.90
2022-08-24T07:30:27.247Z,73.00
2022-08-24T07:32:57.961Z,72.30
2022-08-24T07:35:28.024Z,72.10
2022-08-24T07:37:58.212Z,71.80
2022-08-24T07:40:28.452Z,71.30
2022-08-24T07:43:00.319Z,70.70
2022-08-24T07:45:31.071Z,70.60
2022-08-24T07:50:38.880Z,69.20
2022-08-24T07:53:11.039Z,68.50
2022-08-24T07:55:45.810Z,68.70
2022-08-24T07:58:15.079Z,68.20
2022-08-24T08:00:48.985Z,67.80
2022-08-24T08:03:17.749Z,67.30
2022-08-24T08:05:46.922Z,66.60
2022-08-24T08:08:17.440Z,67.20
2022-08-24T08:10:46.671Z,66.90
2022-08-24T08:13:15.563Z,66.70
2022-08-24T08:15:44.139Z,66.50
2022-08-24T08:18:14.644Z,64.80
2022-08-24T08:20:43.750Z,64.80
2022-08-24T08:23:30.747Z,64.80
2022-08-24T08:26:16.279Z,64.20
2022-08-24T08:29:04.987Z,64.00
2022-08-24T08:31:36.478Z,63.70
2022-08-24T08:34:09.763Z,62.90
2022-08-24T08:36:40.311Z,62.30
2022-08-24T08:39:11.308Z,61.30
2022-08-24T08:42:05.138Z,60.70
2022-08-24T08:44:54.073Z,61.00
2022-08-24T08:47:44.610Z,60.80
2022-08-24T08:50:22.049Z,60.40
2022-08-24T08:53:25.058Z,60.50
2022-08-24T08:56:04.076Z,58.30
2022-08-24T08:58:57.317Z,57.10
2022-08-24T09:01:49.095Z,57.50
2022-08-24T09:04:52.115Z,57.00
2022-08-24T09:07:35.177Z,56.50
2022-08-24T09:10:40.832Z,56.00
2022-08-24T09:13:24.647Z,55.40
2022-08-24T09:16:19.408Z,55.60
2022-08-24T09:19:03.788Z,55.10
2022-08-24T09:21:46.505Z,55.00
2022-08-24T09:24:32.104Z,54.60
2022-08-24T09:27:22.036Z,54.80
2022-08-24T09:30:07.002Z,54.80
2022-08-24T09:32:56.353Z,54.60
2022-08-24T09:35:33.124Z,54.40
2022-08-24T09:38:06.195Z,54.10
2022-08-24T09:41:03.988Z,54.60
2022-08-24T09:43:59.252Z,54.40
2022-08-24T09:46:59.198Z,53.70
2022-08-24T09:50:06.103Z,53.10
2022-08-24T09:53:08.493Z,52.50
2022-08-24T09:56:05.989Z,52.60
2022-08-24T09:58:45.563Z,53.60
2022-08-24T10:01:24.099Z,53.30
2022-08-24T10:04:05.855Z,53.20
2022-08-24T10:06:48.118Z,52.60
2022-08-24T10:09:44.883Z,51.80
2022-08-24T10:12:23.399Z,51.70
2022-08-24T10:14:59.099Z,51.90
2022-08-24T10:17:46.760Z,51.10
2022-08-24T10:20:24.568Z,51.60
2022-08-24T10:23:11.344Z,50.70
2022-08-24T10:25:45.354Z,49.50
2022-08-24T10:28:45.947Z,49.60
2022-08-24T10:31:19.506Z,51.70
2022-08-24T10:34:00.179Z,51.40
2022-08-24T10:36:46.348Z,50.90
2022-08-24T10:39:43.367Z,50.20
2022-08-24T10:42:52.600Z,50.00
2022-08-24T10:45:42.583Z,49.10
2022-08-24T10:48:42.663Z,48.20
2022-08-24T10:51:28.272Z,46.90
2022-08-24T10:53:58.919Z,46.60
2022-08-24T10:56:37.042Z,47.00
2022-08-24T10:59:17.523Z,47.10
2022-08-24T11:02:10.012Z,47.20
2022-08-24T11:04:41.596Z,45.90
2022-08-24T11:07:18.553Z,46.90
2022-08-24T11:09:53.327Z,46.80
2022-08-24T11:12:28.919Z,47.20
2022-08-24T11:14:59.600Z,46.00
2022-08-24T11:17:31.121Z,46.40
2022-08-24T11:19:59.885Z,45.70
2022-08-24T11:22:41.295Z,45.90
2022-08-24T11:25:16.899Z,45.00
2022-08-24T11:27:47.759Z,44.90
2022-08-24T11:30:26.038Z,44.80
2022-08-24T11:32:57.497Z,44.50
2022-08-24T11:35:27.891Z,45.00
2022-08-24T11:37:59.236Z,44.60
2022-08-24T11:40:30.943Z,44.40
2022-08-24T11:43:12.690Z,44.60
2022-08-24T11:45:45.850Z,44.40
2022-08-24T11:48:36.077Z,44.80
2022-08-24T11:51:13.521Z,44.90
2022-08-24T11:53:53.176Z,44.90
2022-08-24T11:56:29.153Z,45.10
2022-08-24T11:59:06.212Z,44.70
2022-08-24T12:01:43.557Z,45.40
2022-08-24T12:04:42.991Z,44.60
2022-08-24T12:07:21.693Z,44.30
2022-08-24T12:10:03.506Z,43.60
2022-08-24T12:12:39.216Z,43.80
2022-08-24T12:15:13.099Z,43.60
2022-08-24T12:17:48.775Z,43.10
2022-08-24T12:20:27.638Z,41.60
2022-08-24T12:23:00.964Z,41.20
2022-08-24T12:25:50.066Z,40.80
2022-08-24T12:28:25.621Z,40.40
2022-08-24T12:30:55.652Z,39.80
2022-08-24T12:33:30.149Z,39.70
2022-08-24T12:36:04.700Z,39.50
2022-08-24T12:38:39.500Z,39.70
2022-08-24T12:41:19.576Z,39.90
2022-08-24T12:43:52.787Z,39.20
2022-08-24T12:46:24.045Z,38.90
2022-08-24T12:48:57.508Z,39.30
2022-08-24T12:51:38.341Z,40.10
2022-08-24T12:54:26.300Z,40.60
2022-08-24T12:57:25.458Z,40.90
2022-08-24T12:59:57.841Z,41.40
2022-08-24T13:02:31.820Z,42.00
2022-08-24T13:05:05.879Z,42.30
2022-08-24T13:07:43.364Z,41.70
2022-08-24T13:10:16.587Z,41.00
2022-08-24T13:13:14.205Z,41.10
2022-08-24T13:15:55.056Z,40.60
2022-08-24T13:19:10.548Z,40.60
2022-08-24T13:21:46.302Z,40.40
2022-08-24T13:24:53.198Z,40.90
2022-08-24T13:28:02.379Z,41.50
2022-08-24T13:30:38.651Z,41.60
2022-08-24T13:33:11.396Z,41.80
2022-08-24T13:36:01.696Z,42.00
2022-08-24T13:39:01.583Z,42.00
2022-08-24T13:42:01.416Z,41.60
2022-08-24T13:44:54.230Z,41.00
2022-08-24T13:48:45.929Z,38.80
2022-08-24T13:51:26.262Z,39.00
2022-08-24T13:54:20.364Z,38.80
2022-08-24T13:57:17.141Z,38.90
2022-08-24T14:00:17.857Z,39.40
2022-08-24T14:06:21.326Z,41.40
2022-08-24T14:09:00.198Z,42.90
2022-08-24T14:11:42.132Z,43.80
2022-08-24T14:14:19.209Z,44.30
2022-08-24T14:17:19.374Z,44.00
2022-08-24T14:19:57.350Z,44.00
2022-08-24T14:22:36.133Z,43.30
2022-08-24T14:25:17.065Z,42.40
2022-08-24T14:27:47.550Z,41.80
2022-08-24T14:30:39.188Z,41.40
2022-08-24T14:33:15.833Z,40.50
2022-08-24T14:35:57.677Z,40.30
2022-08-24T14:38:52.808Z,40.30
2022-08-24T14:41:41.335Z,39.90
2022-08-24T14:44:37.917Z,40.40
2022-08-24T14:47:14.960Z,40.80
2022-08-24T14:50:07.980Z,41.50
2022-08-24T14:52:53.206Z,41.30
2022-08-24T14:55:30.660Z,41.60
2022-08-24T14:58:15.604Z,42.00
2022-08-24T15:00:53.353Z,42.10
2022-08-24T15:03:59.717Z,41.70
2022-08-24T15:06:37.883Z,42.60
2022-08-24T15:09:20.886Z,42.40
2022-08-24T15:11:57.360Z,42.40
2022-08-24T15:14:37.384Z,42.50
2022-08-24T15:17:10.471Z,42.40
2022-08-24T15:19:50.588Z,42.90
2022-08-24T15:22:27.397Z,43.20
2022-08-24T15:25:03.502Z,42.60
2022-08-24T15:27:43.729Z,42.80
2022-08-24T15:30:23.607Z,43.10
2022-08-24T15:32:55.504Z,43.70
2022-08-24T15:35:27.760Z,43.90
2022-08-24T15:37:56.644Z,43.80
2022-08-24T15:40:29.810Z,44.20
2022-08-24T15:43:05.423Z,44.50
2022-08-24T15:45:34.645Z,44.70
2022-08-24T15:48:05.210Z,45.20
2022-08-24T15:50:40.764Z,45.60
2022-08-24T15:53:21.757Z,46.30
2022-08-24T15:55:50.254Z,46.40
2022-08-24T15:58:34.064Z,47.10
2022-08-24T16:01:36.108Z,47.00
2022-08-24T16:04:09.503Z,46.90
2022-08-24T16:06:42.317Z,46.80
2022-08-24T16:09:15.387Z,46.40
2022-08-24T16:11:48.563Z,46.40
2022-08-24T16:14:28.623Z,45.80
2022-08-24T16:16:58.904Z,45.40
2022-08-24T16:19:30.225Z,45.50
2022-08-24T16:22:01.355Z,45.00
2022-08-24T16:24:32.875Z,45.10
2022-08-24T16:27:06.425Z,44.60
2022-08-24T16:29:47.105Z,45.20
2022-08-24T16:32:22.027Z,45.40
2022-08-24T16:35:17.825Z,45.10
2022-08-24T16:37:46.187Z,45.50
2022-08-24T16:40:14.468Z,45.80
2022-08-24T16:42:43.040Z,46.20
2022-08-24T16:45:18.492Z,46.30
2022-08-24T16:47:47.095Z,47.10
2022-08-24T16:50:17.929Z,47.50
2022-08-24T16:52:46.281Z,47.50
2022-08-24T16:55:14.774Z,48.00
2022-08-24T16:57:43.481Z,47.90
2022-08-24T17:00:17.701Z,48.50
2022-08-24T17:02:48.061Z,48.70
2022-08-24T17:05:16.776Z,48.70
2022-08-24T17:07:45.673Z,49.00
2022-08-24T17:10:17.205Z,49.90
2022-08-24T17:12:45.399Z,49.30
2022-08-24T17:15:16.169Z,49.60
2022-08-24T17:17:48.885Z,49.70
2022-08-24T17:20:17.271Z,49.80
2022-08-24T17:22:45.656Z,50.10
2022-08-24T17:25:13.853Z,50.60
2022-08-24T17:27:42.128Z,50.70
2022-08-24T17:30:11.701Z,51.00
2022-08-24T17:32:41.216Z,51.10
2022-08-24T17:35:09.825Z,51.40
2022-08-24T17:37:38.396Z,52.20
2022-08-24T17:40:11.454Z,52.40
2022-08-24T17:42:50.814Z,52.80
2022-08-24T17:45:19.465Z,53.20
2022-08-24T17:47:49.202Z,53.60
2022-08-24T17:50:19.725Z,54.00
2022-08-24T17:52:48.551Z,54.20
2022-08-24T17:55:25.042Z,54.30
2022-08-24T17:57:53.788Z,54.80
2022-08-24T18:00:22.209Z,55.10
2022-08-24T18:02:53.662Z,55.50
2022-08-24T18:05:21.817Z,55.80
2022-08-24T18:07:54.582Z,56.60
2022-08-24T18:10:27.785Z,56.20
2022-08-24T18:12:57.814Z,56.40
2022-08-24T18:15:34.786Z,56.70
2022-08-24T18:18:09.916Z,57.50
2022-08-24T18:20:40.123Z,56.90
2022-08-24T18:23:11.204Z,57.30
2022-08-24T18:25:44.803Z,57.40
2022-08-24T18:28:13.211Z,57.70
2022-08-24T18:30:41.683Z,57.90
2022-08-24T18:33:16.063Z,58.30
2022-08-24T18:35:44.442Z,58.30
2022-08-24T18:38:14.058Z,58.70
2022-08-24T18:40:46.850Z,58.70
2022-08-24T18:43:30.621Z,59.10
2022-08-24T18:45:58.870Z,59.30
2022-08-24T18:48:28.431Z,59.40
2022-08-24T18:50:57.452Z,59.80
2022-08-24T18:53:27.656Z,59.60
2022-08-24T18:56:01.764Z,60.40
2022-08-24T18:58:33.009Z,60.90
2022-08-24T19:01:01.155Z,60.90
2022-08-24T19:03:32.236Z,60.80
2022-08-24T19:06:00.855Z,61.10
2022-08-24T19:08:29.048Z,61.60
2022-08-24T19:10:57.277Z,62.50
2022-08-24T19:13:25.378Z,62.70
2022-08-24T19:15:58.016Z,62.90
2022-08-24T19:18:26.532Z,63.70
2022-08-24T19:20:59.166Z,64.00
2022-08-24T19:23:30.320Z,64.10
2022-08-24T19:25:59.743Z,63.30
2022-08-24T19:28:31.399Z,64.00
2022-08-24T19:31:02.526Z,64.30
2022-08-24T19:33:37.067Z,64.60
2022-08-24T19:36:06.982Z,64.90
2022-08-24T19:38:35.255Z,64.90
2022-08-24T19:41:11.702Z,64.90
2022-08-24T19:43:55.917Z,65.10
2022-08-24T19:46:24.780Z,65.20
2022-08-24T19:48:52.974Z,65.20
2022-08-24T19:51:22.508Z,65.50
2022-08-24T19:53:50.899Z,66.10
2022-08-24T19:56:19.200Z,66.10
2022-08-24T19:58:52.123Z,66.20
2022-08-24T20:01:22.122Z,66.50
2022-08-24T20:03:50.746Z,67.10
2022-08-24T20:06:21.135Z,66.90
2022-08-24T20:08:51.440Z,67.50
2022-08-24T20:11:25.351Z,67.90
2022-08-24T20:13:53.863Z,68.20
2022-08-24T20:16:24.747Z,68.70
2022-08-24T20:18:53.146Z,68.80
2022-08-24T20:21:27.177Z,69.20
2022-08-24T20:24:00.431Z,69.40
2022-08-24T20:26:32.786Z,69.90
2022-08-24T20:29:02.395Z,70.40
2022-08-24T20:31:30.827Z,70.60
2022-08-24T20:33:59.439Z,70.60
2022-08-24T20:36:33.914Z,70.80
2022-08-24T20:39:07.013Z,71.10
2022-08-24T20:41:35.629Z,71.20
2022-08-24T20:44:04.906Z,71.00
2022-08-24T20:46:33.289Z,71.40
2022-08-24T20:49:01.933Z,72.20
2022-08-24T20:51:30.485Z,72.20
2022-08-24T20:53:58.740Z,72.70
2022-08-24T20:56:31.746Z,72.10
2022-08-24T20:59:01.886Z,72.80
2022-08-24T21:01:30.269Z,73.50
2022-08-24T21:04:04.163Z,73.70
2022-08-24T21:06:34.320Z,74.70
2022-08-24T21:09:03.305Z,74.10
2022-08-24T21:11:33.632Z,75.00
2022-08-24T21:14:02.402Z,75.50
2022-08-24T21:16:30.596Z,76.70
2022-08-24T21:18:58.762Z,75.50
2022-08-24T21:21:27.937Z,76.00
2022-08-24T21:23:56.026Z,76.00
2022-08-24T21:26:26.652Z,76.00
2022-08-24T21:28:58.013Z,76.50
2022-08-24T21:31:26.679Z,76.70
2022-08-24T21:34:14.769Z,76.60
2022-08-24T21:36:43.580Z,76.80
2022-08-24T21:39:11.795Z,76.70
2022-08-24T21:41:39.994Z,76.90
2022-08-24T21:44:09.482Z,77.40
2022-08-24T21:46:39.605Z,77.30
2022-08-24T21:49:11.898Z,77.90
2022-08-24T21:51:40.773Z,77.90
2022-08-24T21:54:09.497Z,78.20
2022-08-24T21:56:37.583Z,78.50
2022-08-24T21:59:05.750Z,78.90
2022-08-24T22:01:35.263Z,78.70
2022-08-24T22:04:03.571Z,78.70
2022-08-24T22:06:32.682Z,78.50
2022-08-24T22:09:01.715Z,78.50
2022-08-24T22:11:30.349Z,79.20
2022-08-24T22:13:58.664Z,78.80
2022-08-24T22:16:27.098Z,80.10
2022-08-24T22:18:57.090Z,79.30
2022-08-24T22:21:30.456Z,80.00
2022-08-24T22:23:59.839Z,80.60
2022-08-24T22:26:30.554Z,81.00
2022-08-24T22:28:59.058Z,81.40
2022-08-24T22:31:29.808Z,81.90
2022-08-24T22:34:01.762Z,82.60
2022-08-24T22:36:30.732Z,83.20
2022-08-24T22:39:00.128Z,83.80
2022-08-24T22:41:30.380Z,83.70
2022-08-24T22:44:17.875Z,84.70
2022-08-24T22:46:46.373Z,84.50
2022-08-24T22:49:16.000Z,85.00
2022-08-24T22:51:44.622Z,85.30
2022-08-24T22:54:13.482Z,85.20
2022-08-24T22:56:44.352Z,85.50
2022-08-24T22:59:16.612Z,86.50
2022-08-24T23:01:46.543Z,85.90
2022-08-24T23:04:18.798Z,85.50
2022-08-24T23:06:57.632Z,85.70
2022-08-24T23:09:44.131Z,86.50
2022-08-24T23:12:29.597Z,86.40
2022-08-24T23:15:03.777Z,87.90
2022-08-24T23:17:32.396Z,87.40
2022-08-24T23:20:01.181Z,88.00
2022-08-24T23:22:32.383Z,89.40
2022-08-24T23:25:01.037Z,88.90
2022-08-24T23:27:32.808Z,88.20
2022-08-24T23:30:08.435Z,89.00
2022-08-24T23:32:36.503Z,89.30
2022-08-24T23:35:07.034Z,88.90
2022-08-24T23:37:35.179Z,88.20
2022-08-24T23:40:03.714Z,87.50
2022-08-24T23:42:31.855Z,87.30
2022-08-24T23:45:00.064Z,87.80
2022-08-24T23:47:29.143Z,89.10
2022-08-24T23:49:57.483Z,88.70
2022-08-24T23:52:30.303Z,89.00
2022-08-24T23:55:07.044Z,89.60
2022-08-24T23:57:47.536Z,90.20
